createdAt,value
2022-10-03T05:26:46.066Z,8.40
2022-10-03T05:29:25.229Z,8.40
2022-10-03T05:32:07.357Z,8.30
2022-10-03T05:34:52.329Z,8.20
2022-10-03T05:37:41.688Z,8.20
2022-10-03T05:40:18.050Z,8.20
2022-10-03T05:43:08.114Z,8.10
2022-10-03T05:45:49.182Z,8.10
2022-10-03T05:48:32.080Z,8.10
2022-10-03T05:51:33.898Z,8.10
2022-10-03T05:54:26.363Z,8.10
2022-10-03T05:57:34.110Z,8.10
2022-10-03T06:00:23.110Z,8.10
2022-10-03T06:03:27.225Z,8.20
2022-10-03T06:06:12.306Z,8.30
2022-10-03T06:09:24.311Z,8.40
2022-10-03T06:12:06.057Z,8.40
2022-10-03T06:14:45.556Z,8.60
2022-10-03T06:17:39.782Z,8.60
2022-10-03T06:20:30.168Z,8.60
2022-10-03T06:23:35.691Z,8.80
2022-10-03T06:26:32.827Z,9.00
2022-10-03T06:29:40.820Z,9.10
2022-10-03T06:32:53.569Z,9.10
2022-10-03T06:35:56.373Z,9.10
2022-10-03T06:39:04.462Z,9.20
2022-10-03T06:42:12.238Z,9.20
2022-10-03T06:45:16.583Z,9.30
2022-10-03T06:48:05.136Z,9.30
2022-10-03T06:50:54.589Z,9.30
2022-10-03T06:53:56.831Z,9.40
2022-10-03T06:56:54.704Z,9.40
2022-10-03T06:59:51.431Z,9.40
2022-10-03T07:02:45.738Z,9.40
2022-10-03T07:06:00.712Z,9.50
2022-10-03T07:09:08.858Z,9.50
2022-10-03T07:12:10.906Z,9.60
2022-10-03T07:15:43.606Z,9.70
2022-10-03T07:18:54.387Z,9.80
2022-10-03T07:22:05.518Z,9.90
2022-10-03T07:25:23.299Z,10.20
2022-10-03T07:28:09.875Z,10.40
2022-10-03T07:30:56.470Z,10.50
2022-10-03T07:33:55.672Z,10.50
2022-10-03T07:37:02.926Z,10.70
2022-10-03T07:40:02.797Z,10.60
2022-10-03T07:43:00.082Z,10.50
2022-10-03T07:45:34.733Z,10.50
2022-10-03T07:48:50.905Z,10.50
2022-10-03T07:51:25.789Z,10.60
2022-10-03T07:54:20.971Z,10.70
2022-10-03T07:57:15.432Z,10.70
2022-10-03T08:00:15.012Z,10.90
2022-10-03T08:03:14.602Z,11.30
2022-10-03T08:05:56.341Z,11.30
2022-10-03T08:08:54.267Z,11.10
2022-10-03T08:11:42.738Z,11.10
2022-10-03T08:14:35.277Z,11.20
2022-10-03T08:17:49.772Z,11.30
2022-10-03T08:20:46.291Z,11.40
2022-10-03T08:23:48.436Z,11.80
2022-10-03T08:26:23.764Z,11.90
2022-10-03T08:29:29.141Z,11.90
2022-10-03T08:32:30.029Z,11.90
2022-10-03T08:35:37.623Z,12.00
2022-10-03T08:38:37.838Z,12.00
2022-10-03T08:41:39.241Z,11.90
2022-10-03T08:44:56.211Z,12.00
2022-10-03T08:47:49.063Z,12.20
2022-10-03T08:50:36.386Z,12.30
2022-10-03T08:53:35.368Z,12.40
2022-10-03T08:56:07.912Z,12.30
2022-10-03T08:59:06.946Z,12.40
2022-10-03T18:49:58.265Z,8.00
2022-10-03T18:52:34.656Z,7.90
2022-10-03T18:55:08.380Z,7.90
